Hemlock, Michigan
Current Conditions -  °F | °C
As of 1:53 PM on Thursday 18 Dec 2014 (Local Time) from KMBS Reporting Station
Overcast Overcast  
Wind Chill: 23°   Ceiling: 1200
Heat Index: 31°   Visibility: 10mi
Dew Point: 24°   Wind: 8mph
Humidity: 76%   Direction: 320°NW
Pressure: 30.17"   Gusts: NA
Location:  43.41°N, 84.23°W
Report Text: KMBS 181853Z 32007KT 10SM OVC012 M01/M04 A3017 RMK AO2 SLP225 T10061044
Loading
Personal Weather Stations






























Interactive Weather Map New forecast layout! Learn more

10-Day Weather Forecast

Advertisements
Track Severe Weather on mobile